Time;durP1;ratioP1;P1;durP2;ratioP2;P2;SDS_P1;SDS_P2;PMS_P1;PMS_P2;Temp;Humidity;BMP_temperature;BMP_pressure;BME280_temperature;BME280_humidity;BME280_pressure;Samples;Min_cycle;Max_cycle;Signal;HPM_P1;HPM_P2
2021/09/23 00:00:13;;;;;;;;;;;21.20;71.00;;;;;;5013698;28;1635;-70
2021/09/23 00:05:10;;;;;;;;;;;21.20;71.10;;;;;;5014257;28;1294;-70
2021/09/23 00:07:35;;;;;;;;;;;21.20;71.10;;;;;;5014350;28;1384;-70
2021/09/23 00:10:01;;;;;;;;;;;21.10;71.10;;;;;;5016210;28;1891;-70
2021/09/23 00:12:26;;;;;;;;;;;21.10;71.10;;;;;;5034411;28;1384;-70
2021/09/23 00:14:52;;;;;;;;;;;21.10;71.10;;;;;;5034087;28;1542;-70
2021/09/23 00:17:17;;;;;;;;;;;21.10;71.10;;;;;;5034344;28;1634;-70
2021/09/23 00:19:43;;;;;;;;;;;21.10;71.10;;;;;;5034100;28;1219;-70
2021/09/23 00:22:08;;;;;;;;;;;21.10;71.10;;;;;;5015463;28;1689;-70
2021/09/23 00:24:34;;;;;;;;;;;21.10;71.20;;;;;;5002782;28;1535;-70
2021/09/23 00:26:59;;;;;;;;;;;21.10;71.20;;;;;;5016029;28;1369;-69
2021/09/23 00:29:25;;;;;;;;;;;21.20;71.30;;;;;;5033715;28;1183;-69
2021/09/23 00:31:50;;;;;;;;;;;21.10;71.20;;;;;;5033799;28;1903;-69
2021/09/23 00:34:15;;;;;;;;;;;21.10;71.20;;;;;;5019481;28;1385;-70
2021/09/23 00:36:41;;;;;;;;;;;21.10;71.30;;;;;;5013976;28;1728;-70
2021/09/23 00:39:06;;;;;;;;;;;21.10;71.30;;;;;;4996046;28;1256;-69
2021/09/23 00:41:32;;;;;;;;;;;21.10;71.30;;;;;;5003355;28;1410;-69
2021/09/23 00:43:57;;;;;;;;;;;21.10;71.30;;;;;;5018790;28;1659;-70
2021/09/23 00:46:23;;;;;;;;;;;21.10;71.30;;;;;;5013115;28;1383;-69
2021/09/23 00:48:50;;;;;;;;;;;21.10;71.40;;;;;;5013295;28;1360;-69
2021/09/23 00:51:18;;;;;;;;;;;21.10;71.40;;;;;;4995598;28;1902;-69
2021/09/23 00:53:44;;;;;;;;;;;21.10;71.40;;;;;;5011266;28;1464;-69
2021/09/23 00:56:09;;;;;;;;;;;21.10;71.40;;;;;;5033548;28;1653;-69
2021/09/23 00:58:35;;;;;;;;;;;21.10;71.40;;;;;;5033522;28;1206;-69
2021/09/23 01:01:01;;;;;;;;;;;21.10;71.40;;;;;;5023994;28;1169;-69
2021/09/23 01:03:26;;;;;;;;;;;21.10;71.40;;;;;;5013517;28;1374;-69
2021/09/23 01:05:52;;;;;;;;;;;21.10;71.50;;;;;;5013203;28;1416;-69
2021/09/23 01:08:17;;;;;;;;;;;21.10;71.50;;;;;;5013303;28;1466;-69
2021/09/23 01:10:42;;;;;;;;;;;21.10;71.50;;;;;;5012140;28;1875;-69
2021/09/23 01:13:08;;;;;;;;;;;21.10;71.50;;;;;;5014524;28;1232;-69
2021/09/23 01:15:33;;;;;;;;;;;21.10;71.60;;;;;;5033188;28;1361;-69
2021/09/23 01:17:59;;;;;;;;;;;21.10;71.60;;;;;;5002538;28;1299;-69
2021/09/23 01:20:24;;;;;;;;;;;21.10;71.60;;;;;;5032833;28;1481;-69
2021/09/23 01:22:49;;;;;;;;;;;21.10;72.30;;;;;;5014663;28;1427;-69
2021/09/23 01:25:16;;;;;;;;;;;21.10;71.60;;;;;;5013002;28;1467;-69
2021/09/23 01:27:41;;;;;;;;;;;21.10;71.60;;;;;;5013116;28;1219;-69
2021/09/23 01:30:07;;;;;;;;;;;21.10;71.60;;;;;;5011781;28;1906;-70
2021/09/23 01:32:32;;;;;;;;;;;21.10;71.60;;;;;;5012601;28;1215;-69
2021/09/23 01:34:58;;;;;;;;;;;21.00;71.50;;;;;;5013272;28;1340;-69
2021/09/23 01:37:23;;;;;;;;;;;21.10;71.60;;;;;;5013252;28;1300;-69
2021/09/23 01:39:48;;;;;;;;;;;21.10;71.60;;;;;;4982424;28;1678;-69
2021/09/23 01:42:14;;;;;;;;;;;21.00;71.50;;;;;;5026469;28;1334;-69
2021/09/23 01:44:39;;;;;;;;;;;21.10;71.60;;;;;;5032640;28;1267;-70
2021/09/23 01:47:05;;;;;;;;;;;21.10;71.50;;;;;;5032467;28;1347;-69
2021/09/23 01:49:30;;;;;;;;;;;21.10;71.50;;;;;;5032229;28;1684;-68
2021/09/23 01:51:56;;;;;;;;;;;21.10;71.40;;;;;;5031436;28;1898;-70
2021/09/23 01:54:21;;;;;;;;;;;21.10;71.40;;;;;;5032493;28;1627;-70
2021/09/23 01:56:52;;;;;;;;;;;21.10;71.30;;;;;;5036269;28;1231;-70
2021/09/23 01:59:18;;;;;;;;;;;21.10;71.20;;;;;;5039359;28;1282;-70
2021/09/23 02:01:43;;;;;;;;;;;21.10;71.10;;;;;;5038888;28;1077;-71
2021/09/23 02:04:08;;;;;;;;;;;21.20;71.10;;;;;;5033025;28;1185;-70
2021/09/23 02:06:34;;;;;;;;;;;21.20;71.10;;;;;;5019419;28;1275;-70
2021/09/23 02:08:59;;;;;;;;;;;21.20;71.00;;;;;;5025665;28;1065;-70
2021/09/23 02:11:25;;;;;;;;;;;21.20;70.90;;;;;;5038796;28;1915;-70
2021/09/23 02:13:50;;;;;;;;;;;21.20;70.90;;;;;;5033619;28;1177;-70
2021/09/23 02:16:16;;;;;;;;;;;21.30;70.90;;;;;;5045488;28;1302;-70
2021/09/23 02:18:41;;;;;;;;;;;21.30;70.90;;;;;;5020963;28;1256;-71
2021/09/23 02:21:06;;;;;;;;;;;21.30;70.80;;;;;;5020041;28;1473;-70
2021/09/23 02:23:32;;;;;;;;;;;21.30;70.80;;;;;;5021117;28;1360;-70
2021/09/23 02:25:57;;;;;;;;;;;21.30;70.70;;;;;;5025693;28;1253;-70
2021/09/23 02:28:23;;;;;;;;;;;21.30;70.70;;;;;;5039007;28;1419;-69
2021/09/23 02:30:48;;;;;;;;;;;21.30;70.70;;;;;;5024658;28;1914;-69
2021/09/23 02:33:14;;;;;;;;;;;21.30;70.60;;;;;;5038362;28;1723;-70
2021/09/23 02:35:39;;;;;;;;;;;21.30;70.60;;;;;;5020932;28;1668;-68
2021/09/23 02:38:04;;;;;;;;;;;21.30;70.50;;;;;;5021330;28;1349;-70
2021/09/23 02:40:30;;;;;;;;;;;21.40;70.50;;;;;;5008283;28;1725;-70
2021/09/23 02:42:55;;;;;;;;;;;21.40;70.50;;;;;;5019086;28;1150;-70
2021/09/23 02:45:21;;;;;;;;;;;21.40;70.50;;;;;;5018929;28;1400;-70
2021/09/23 02:47:47;;;;;;;;;;;21.40;70.50;;;;;;5001308;28;1633;-70
2021/09/23 02:50:12;;;;;;;;;;;21.30;70.40;;;;;;5018354;28;1965;-70
2021/09/23 02:52:38;;;;;;;;;;;21.40;70.40;;;;;;5037846;28;1181;-70
2021/09/23 02:55:03;;;;;;;;;;;21.40;70.40;;;;;;5038973;28;898;-70
2021/09/23 02:57:29;;;;;;;;;;;21.40;70.40;;;;;;5002905;28;1237;-70
2021/09/23 02:59:54;;;;;;;;;;;21.40;70.50;;;;;;5030387;28;1123;-70
2021/09/23 03:02:19;;;;;;;;;;;21.40;70.50;;;;;;5038945;28;942;-70
2021/09/23 03:04:45;;;;;;;;;;;21.40;70.50;;;;;;5038813;28;1080;-70
2021/09/23 03:07:10;;;;;;;;;;;21.40;70.50;;;;;;5038039;28;1260;-70
2021/09/23 03:09:36;;;;;;;;;;;21.30;70.50;;;;;;5034983;28;1092;-70
2021/09/23 03:12:01;;;;;;;;;;;21.30;70.50;;;;;;5035478;28;1898;-70
2021/09/23 03:14:27;;;;;;;;;;;21.30;70.50;;;;;;5047789;28;1218;-70
2021/09/23 03:16:52;;;;;;;;;;;21.30;70.50;;;;;;5036844;28;1324;-70
2021/09/23 03:19:18;;;;;;;;;;;21.30;70.50;;;;;;5035567;28;1264;-70
2021/09/23 03:21:43;;;;;;;;;;;21.30;70.50;;;;;;5017743;28;1089;-70
2021/09/23 03:24:10;;;;;;;;;;;21.30;70.60;;;;;;5035645;28;1135;-70
2021/09/23 03:26:35;;;;;;;;;;;21.30;70.60;;;;;;5030347;28;1275;-70
2021/09/23 03:29:01;;;;;;;;;;;21.30;70.60;;;;;;5027671;28;1151;-70
2021/09/23 03:31:26;;;;;;;;;;;21.30;70.70;;;;;;5017347;28;1914;-70
2021/09/23 03:33:52;;;;;;;;;;;21.30;70.70;;;;;;5006115;28;1131;-70
2021/09/23 03:36:17;;;;;;;;;;;21.30;70.70;;;;;;5033451;28;1290;-70
2021/09/23 03:38:43;;;;;;;;;;;21.30;70.80;;;;;;5017624;28;1131;-70
2021/09/23 03:41:09;;;;;;;;;;;21.30;70.80;;;;;;5011897;28;1096;-70
2021/09/23 03:43:34;;;;;;;;;;;21.30;70.80;;;;;;5027197;28;1167;-70
2021/09/23 03:46:04;;;;;;;;;;;21.30;70.80;;;;;;5016737;28;1232;-70
2021/09/23 03:48:29;;;;;;;;;;;21.30;70.90;;;;;;5027033;28;1084;-70
2021/09/23 03:50:55;;;;;;;;;;;21.30;70.90;;;;;;5000497;28;1899;-70
2021/09/23 03:53:20;;;;;;;;;;;21.20;70.80;;;;;;5034988;28;1210;-70
2021/09/23 03:55:46;;;;;;;;;;;21.30;70.90;;;;;;5016453;28;1302;-70
2021/09/23 03:58:11;;;;;;;;;;;21.20;70.90;;;;;;5034650;28;1119;-70
2021/09/23 04:00:36;;;;;;;;;;;21.20;70.90;;;;;;5033387;28;1128;-70
2021/09/23 04:03:02;;;;;;;;;;;21.20;70.90;;;;;;5034494;28;1249;-70
2021/09/23 04:05:30;;;;;;;;;;;21.20;71.00;;;;;;5034236;28;1124;-70
2021/09/23 04:07:55;;;;;;;;;;;21.20;71.00;;;;;;5005209;28;1319;-70
2021/09/23 04:10:22;;;;;;;;;;;21.20;71.00;;;;;;5019697;28;1938;-70
2021/09/23 04:12:49;;;;;;;;;;;21.20;71.00;;;;;;5034607;28;1071;-70
2021/09/23 04:15:14;;;;;;;;;;;21.20;71.70;;;;;;5034391;28;922;-70
2021/09/23 04:17:40;;;;;;;;;;;21.20;70.90;;;;;;5034541;28;1166;-70
2021/09/23 04:20:05;;;;;;;;;;;21.20;70.90;;;;;;5005397;28;1262;-70
2021/09/23 04:22:31;;;;;;;;;;;21.30;70.90;;;;;;5023083;28;851;-70
2021/09/23 04:24:56;;;;;;;;;;;21.30;70.90;;;;;;5027529;28;1061;-70
2021/09/23 04:27:22;;;;;;;;;;;21.30;70.80;;;;;;5025456;28;1312;-70
2021/09/23 04:29:47;;;;;;;;;;;21.30;70.80;;;;;;5003250;28;1961;-70
2021/09/23 04:32:13;;;;;;;;;;;21.30;70.70;;;;;;5022964;28;1243;-70
2021/09/23 04:34:38;;;;;;;;;;;21.30;70.70;;;;;;5014497;28;1092;-70
2021/09/23 04:37:04;;;;;;;;;;;21.30;70.70;;;;;;5005490;28;1217;-70
2021/09/23 04:39:29;;;;;;;;;;;21.30;70.60;;;;;;5027233;28;1166;-70
2021/09/23 04:41:55;;;;;;;;;;;21.40;70.60;;;;;;5025146;28;1060;-70
2021/09/23 04:44:20;;;;;;;;;;;21.40;70.60;;;;;;5016266;28;1144;-70
2021/09/23 04:46:46;;;;;;;;;;;21.40;70.50;;;;;;5033825;28;1224;-70
2021/09/23 04:49:11;;;;;;;;;;;21.40;70.50;;;;;;5016702;28;1140;-70
2021/09/23 04:51:36;;;;;;;;;;;21.40;70.50;;;;;;5024249;28;1944;-70
2021/09/23 04:54:03;;;;;;;;;;;21.40;70.40;;;;;;5016109;28;1147;-70
2021/09/23 04:56:29;;;;;;;;;;;21.40;70.40;;;;;;5023244;28;1253;-70
2021/09/23 04:58:54;;;;;;;;;;;21.40;70.40;;;;;;5013098;28;1129;-70
2021/09/23 05:01:20;;;;;;;;;;;21.40;70.30;;;;;;5033147;28;1346;-70
2021/09/23 05:03:45;;;;;;;;;;;21.40;70.30;;;;;;5033507;28;1323;-70
2021/09/23 05:06:10;;;;;;;;;;;21.40;70.30;;;;;;5033450;28;1343;-70
2021/09/23 05:08:36;;;;;;;;;;;21.40;70.70;;;;;;5033766;28;1065;-70
2021/09/23 05:11:02;;;;;;;;;;;21.40;70.30;;;;;;5005384;28;1910;-70
2021/09/23 05:13:27;;;;;;;;;;;21.40;70.30;;;;;;5017463;28;1422;-70
2021/09/23 05:15:53;;;;;;;;;;;21.40;70.20;;;;;;5033365;28;1335;-70
2021/09/23 05:18:18;;;;;;;;;;;21.40;70.20;;;;;;5033270;28;1399;-70
2021/09/23 05:20:43;;;;;;;;;;;21.40;70.20;;;;;;5025099;28;1810;-71
2021/09/23 05:23:09;;;;;;;;;;;21.40;70.20;;;;;;5027392;28;2162;-72
2021/09/23 05:25:34;;;;;;;;;;;21.50;70.20;;;;;;5014944;28;1132;-70
2021/09/23 05:28:00;;;;;;;;;;;21.50;70.20;;;;;;5011434;28;1303;-70
2021/09/23 05:30:25;;;;;;;;;;;21.40;70.20;;;;;;4995171;28;1915;-70
2021/09/23 05:32:51;;;;;;;;;;;21.40;70.10;;;;;;5012856;28;1379;-70
2021/09/23 05:35:16;;;;;;;;;;;21.50;70.20;;;;;;4995395;28;1367;-69
2021/09/23 05:37:42;;;;;;;;;;;21.50;70.20;;;;;;4995514;28;1294;-71
2021/09/23 05:40:08;;;;;;;;;;;21.50;70.10;;;;;;5021974;28;1096;-72
2021/09/23 05:42:33;;;;;;;;;;;21.50;70.10;;;;;;5015495;28;1325;-71
2021/09/23 05:44:59;;;;;;;;;;;21.50;70.10;;;;;;5032581;28;1369;-72
2021/09/23 05:47:24;;;;;;;;;;;21.50;70.20;;;;;;5012467;28;1333;-72
2021/09/23 05:49:49;;;;;;;;;;;21.50;70.10;;;;;;4995302;28;1894;-72
2021/09/23 05:52:16;;;;;;;;;;;21.50;70.10;;;;;;5011005;28;1093;-71
2021/09/23 05:54:42;;;;;;;;;;;21.50;70.10;;;;;;5032539;28;1271;-71
2021/09/23 05:57:07;;;;;;;;;;;21.50;70.10;;;;;;5033106;28;1304;-69
2021/09/23 05:59:33;;;;;;;;;;;21.50;70.10;;;;;;5032542;28;1245;-70
2021/09/23 06:01:59;;;;;;;;;;;21.50;68.30;;;;;;5032435;28;1264;-71
2021/09/23 06:04:24;;;;;;;;;;;21.50;67.30;;;;;;5032688;28;1091;-70
2021/09/23 06:06:50;;;;;;;;;;;21.50;66.20;;;;;;5015235;28;1503;-66
2021/09/23 06:09:15;;;;;;;;;;;21.50;66.70;;;;;;5032704;28;1387;-66
2021/09/23 06:11:41;;;;;;;;;;;21.50;65.40;;;;;;5014296;28;1943;-66
2021/09/23 06:14:06;;;;;;;;;;;21.50;66.20;;;;;;5032639;28;1190;-68
2021/09/23 06:16:31;;;;;;;;;;;21.50;66.20;;;;;;5032420;28;1446;-68
2021/09/23 06:18:57;;;;;;;;;;;21.50;65.60;;;;;;5014981;28;1250;-69
2021/09/23 06:21:22;;;;;;;;;;;21.50;66.00;;;;;;5032237;28;1271;-69
2021/09/23 06:23:48;;;;;;;;;;;21.40;65.00;;;;;;5032349;28;1264;-67
2021/09/23 06:26:13;;;;;;;;;;;21.40;65.10;;;;;;5032199;28;1315;-67
2021/09/23 06:28:39;;;;;;;;;;;21.40;64.70;;;;;;5033007;28;1300;-68
2021/09/23 06:31:04;;;;;;;;;;;21.40;64.50;;;;;;5032219;28;1910;-67
2021/09/23 06:33:29;;;;;;;;;;;21.40;65.00;;;;;;5032730;28;1283;-66
2021/09/23 06:35:55;;;;;;;;;;;21.40;64.60;;;;;;5014870;28;1312;-67
2021/09/23 06:38:20;;;;;;;;;;;21.40;64.70;;;;;;5014545;28;1348;-65
2021/09/23 06:40:47;;;;;;;;;;;21.40;64.80;;;;;;5032372;28;1432;-68
2021/09/23 06:43:12;;;;;;;;;;;21.40;64.20;;;;;;5034509;28;1292;-67
2021/09/23 06:45:38;;;;;;;;;;;21.40;63.90;;;;;;5036467;28;1271;-67
2021/09/23 06:48:03;;;;;;;;;;;21.30;64.20;;;;;;5035964;28;1316;-66
2021/09/23 06:50:29;;;;;;;;;;;21.30;64.40;;;;;;5035459;28;1914;-66
2021/09/23 06:52:54;;;;;;;;;;;21.30;63.90;;;;;;5035739;28;1263;-68
2021/09/23 06:55:20;;;;;;;;;;;21.30;63.90;;;;;;5018122;28;1346;-69
2021/09/23 06:57:46;;;;;;;;;;;21.30;64.00;;;;;;5035836;28;1409;-69
2021/09/23 07:00:12;;;;;;;;;;;21.30;64.20;;;;;;5035896;28;1140;-69
2021/09/23 07:02:37;;;;;;;;;;;21.30;63.70;;;;;;5036078;28;1284;-68
2021/09/23 07:05:03;;;;;;;;;;;21.30;64.00;;;;;;5035978;28;1231;-69
2021/09/23 07:07:28;;;;;;;;;;;21.20;64.10;;;;;;5035326;28;1290;-68
2021/09/23 07:09:54;;;;;;;;;;;21.20;64.30;;;;;;5035327;28;1898;-68
2021/09/23 07:12:19;;;;;;;;;;;21.20;63.80;;;;;;5035712;28;1326;-69
2021/09/23 07:14:44;;;;;;;;;;;21.20;63.20;;;;;;5035683;28;1284;-68
2021/09/23 07:17:10;;;;;;;;;;;21.20;64.00;;;;;;5018075;28;1367;-68
2021/09/23 07:19:35;;;;;;;;;;;21.20;63.10;;;;;;5035549;28;1570;-68
2021/09/23 07:22:03;;;;;;;;;;;21.20;63.60;;;;;;5035256;28;1275;-68
2021/09/23 07:24:29;;;;;;;;;;;21.20;63.20;;;;;;5035526;28;1308;-68
2021/09/23 07:26:54;;;;;;;;;;;21.20;63.40;;;;;;5009832;28;1217;-68
2021/09/23 07:29:20;;;;;;;;;;;21.20;63.50;;;;;;5012352;28;1322;-68
2021/09/23 07:31:45;;;;;;;;;;;21.20;62.60;;;;;;5034978;28;1891;-68
2021/09/23 07:34:11;;;;;;;;;;;21.20;62.10;;;;;;5035139;28;1283;-68
2021/09/23 07:36:36;;;;;;;;;;;21.20;62.70;;;;;;5017446;28;1418;-69
2021/09/23 07:39:06;;;;;;;;;;;21.20;62.40;;;;;;5035361;28;1287;-68
2021/09/23 07:41:32;;;;;;;;;;;21.20;62.30;;;;;;5034892;28;1307;-68
2021/09/23 07:43:57;;;;;;;;;;;21.20;62.50;;;;;;5035339;28;1291;-68
2021/09/23 07:46:22;;;;;;;;;;;21.20;62.00;;;;;;5035191;28;1346;-68
2021/09/23 07:48:53;;;;;;;;;;;21.20;62.00;;;;;;5035161;28;1314;-68
2021/09/23 07:51:19;;;;;;;;;;;21.20;62.30;;;;;;5034590;28;1961;-68
2021/09/23 07:53:44;;;;;;;;;;;21.20;62.40;;;;;;5034176;28;1316;-68
2021/09/23 07:56:09;;;;;;;;;;;21.20;61.90;;;;;;5017070;28;1306;-69
2021/09/23 07:58:35;;;;;;;;;;;21.20;62.00;;;;;;5034760;28;1315;-68
2021/09/23 08:01:00;;;;;;;;;;;21.20;61.70;;;;;;5034428;28;1322;-68
2021/09/23 08:03:26;;;;;;;;;;;21.20;61.80;;;;;;5034742;28;1260;-68
2021/09/23 08:05:51;;;;;;;;;;;21.20;62.10;;;;;;5034384;28;1292;-68
2021/09/23 08:08:17;;;;;;;;;;;21.20;61.90;;;;;;5034678;28;1287;-68
2021/09/23 08:10:42;;;;;;;;;;;21.20;61.80;;;;;;5016436;28;1970;-68
2021/09/23 08:13:08;;;;;;;;;;;21.10;62.10;;;;;;5034669;28;1276;-69
2021/09/23 08:15:33;;;;;;;;;;;21.10;61.70;;;;;;5034273;28;1370;-68
2021/09/23 08:17:58;;;;;;;;;;;21.10;61.60;;;;;;5034455;28;1350;-68
2021/09/23 08:20:24;;;;;;;;;;;21.10;61.90;;;;;;5033841;28;1672;-68
2021/09/23 08:22:49;;;;;;;;;;;21.10;61.70;;;;;;5034500;28;1307;-69
2021/09/23 08:25:15;;;;;;;;;;;21.10;61.70;;;;;;5034365;28;1315;-68
2021/09/23 08:27:40;;;;;;;;;;;21.10;61.70;;;;;;5034050;28;1348;-68
2021/09/23 08:30:06;;;;;;;;;;;21.10;61.90;;;;;;5033749;28;1967;-69
2021/09/23 08:32:31;;;;;;;;;;;21.10;61.50;;;;;;5034284;28;1308;-68
2021/09/23 08:34:57;;;;;;;;;;;21.10;61.80;;;;;;5034146;28;1256;-68
2021/09/23 08:37:22;;;;;;;;;;;21.10;61.60;;;;;;5034098;28;1316;-68
2021/09/23 08:39:48;;;;;;;;;;;21.10;62.00;;;;;;5016390;28;1660;-68
2021/09/23 08:42:14;;;;;;;;;;;21.10;61.70;;;;;;5016208;28;1245;-68
2021/09/23 08:44:40;;;;;;;;;;;21.00;61.70;;;;;;5016313;28;1276;-68
2021/09/23 08:47:06;;;;;;;;;;;21.00;61.70;;;;;;5033883;28;1364;-68
2021/09/23 08:49:31;;;;;;;;;;;21.00;61.80;;;;;;5016027;28;1315;-68
2021/09/23 08:51:57;;;;;;;;;;;21.00;61.40;;;;;;5033236;28;1903;-69
2021/09/23 08:54:22;;;;;;;;;;;21.00;61.50;;;;;;5015883;28;1313;-68
2021/09/23 08:56:48;;;;;;;;;;;21.00;61.40;;;;;;5015711;28;1304;-67
2021/09/23 08:59:13;;;;;;;;;;;21.00;61.20;;;;;;5016092;28;1505;-67
2021/09/23 09:01:49;;;;;;;;;;;21.00;61.20;;;;;;5015396;28;1651;-68
2021/09/23 09:04:15;;;;;;;;;;;21.00;60.80;;;;;;5033405;28;1294;-68
2021/09/23 09:06:49;;;;;;;;;;;21.00;60.60;;;;;;5032286;28;1246;-67
2021/09/23 09:09:17;;;;;;;;;;;21.00;60.70;;;;;;5033571;28;1331;-67
2021/09/23 09:11:44;;;;;;;;;;;20.90;60.60;;;;;;5015416;28;1914;-68
2021/09/23 09:14:10;;;;;;;;;;;20.90;60.50;;;;;;5015973;28;1214;-68
2021/09/23 09:16:38;;;;;;;;;;;20.90;60.50;;;;;;5015262;28;1479;-67
2021/09/23 09:19:06;;;;;;;;;;;20.90;60.80;;;;;;5033884;28;1279;-67
2021/09/23 09:21:31;;;;;;;;;;;20.90;60.80;;;;;;5015602;28;1290;-68
2021/09/23 09:24:00;;;;;;;;;;;20.90;60.90;;;;;;5033382;28;1271;-67
2021/09/23 09:26:25;;;;;;;;;;;20.90;60.90;;;;;;5015761;28;1391;-67
2021/09/23 09:28:54;;;;;;;;;;;20.90;60.80;;;;;;5033267;28;1355;-67
2021/09/23 09:31:20;;;;;;;;;;;20.90;60.70;;;;;;5014898;28;1977;-67
2021/09/23 09:33:46;;;;;;;;;;;20.90;60.80;;;;;;5033208;28;1288;-67
2021/09/23 09:36:28;;;;;;;;;;;20.90;60.70;;;;;;5015433;28;1341;-67
2021/09/23 09:38:54;;;;;;;;;;;20.90;60.80;;;;;;5033119;28;1456;-67
2021/09/23 09:41:26;;;;;;;;;;;20.90;60.80;;;;;;5032704;28;1392;-67
2021/09/23 09:43:56;;;;;;;;;;;20.90;60.70;;;;;;5002190;28;1303;-67
2021/09/23 09:46:22;;;;;;;;;;;20.80;60.70;;;;;;5025309;28;1377;-67
2021/09/23 09:48:47;;;;;;;;;;;20.80;60.50;;;;;;5013145;28;1349;-67
2021/09/23 09:51:13;;;;;;;;;;;20.80;61.00;;;;;;5020213;28;1977;-67
2021/09/23 09:53:38;;;;;;;;;;;20.80;60.80;;;;;;5033051;28;1252;-67
2021/09/23 09:56:04;;;;;;;;;;;20.90;60.90;;;;;;5032737;28;1360;-67
2021/09/23 09:58:29;;;;;;;;;;;20.80;60.90;;;;;;5014888;28;1377;-67
2021/09/23 10:00:55;;;;;;;;;;;20.80;61.00;;;;;;5032447;28;1282;-67
2021/09/23 10:03:20;;;;;;;;;;;20.80;61.00;;;;;;5019622;28;1193;-67
2021/09/23 10:05:45;;;;;;;;;;;20.80;61.10;;;;;;5009230;28;2216;-68
2021/09/23 10:08:11;;;;;;;;;;;20.80;61.10;;;;;;5014772;28;1173;-67
2021/09/23 10:10:36;;;;;;;;;;;20.80;60.10;;;;;;5008338;28;1910;-67
2021/09/23 10:13:02;;;;;;;;;;;20.80;60.00;;;;;;5031316;28;1048;-67
2021/09/23 10:15:27;;;;;;;;;;;20.80;60.50;;;;;;5014454;28;1273;-67
2021/09/23 10:17:55;;;;;;;;;;;20.80;60.10;;;;;;5032230;28;1312;-67
2021/09/23 10:20:21;;;;;;;;;;;20.80;60.70;;;;;;5018721;28;1382;-67
2021/09/23 10:22:46;;;;;;;;;;;20.80;60.70;;;;;;5036398;28;1240;-67
2021/09/23 10:25:13;;;;;;;;;;;20.80;60.90;;;;;;5036671;28;1267;-67
2021/09/23 10:30:22;;;;;;;;;;;20.80;60.40;;;;;;5018630;28;1906;-67
2021/09/23 10:32:48;;;;;;;;;;;20.80;60.40;;;;;;5035063;28;1331;-67
2021/09/23 10:35:14;;;;;;;;;;;20.80;60.80;;;;;;5036482;28;1079;-67
2021/09/23 10:37:39;;;;;;;;;;;20.80;60.90;;;;;;5001430;28;2018;-67
2021/09/23 10:40:05;;;;;;;;;;;20.80;60.80;;;;;;5018277;28;1302;-68
2021/09/23 10:42:30;;;;;;;;;;;20.80;60.90;;;;;;5035957;28;1335;-67
2021/09/23 10:44:56;;;;;;;;;;;20.80;60.70;;;;;;5018500;28;1384;-67
2021/09/23 10:47:25;;;;;;;;;;;20.80;60.80;;;;;;5005194;28;1668;-67
2021/09/23 10:49:50;;;;;;;;;;;20.80;61.00;;;;;;5018237;28;1472;-67
2021/09/23 10:52:16;;;;;;;;;;;20.80;60.50;;;;;;5018073;28;1898;-67
2021/09/23 10:54:41;;;;;;;;;;;20.80;60.40;;;;;;5036032;28;1284;-67
2021/09/23 10:57:07;;;;;;;;;;;20.80;60.10;;;;;;5018087;28;1388;-67
2021/09/23 10:59:32;;;;;;;;;;;20.70;59.20;;;;;;5035966;28;1131;-67
2021/09/23 11:01:58;;;;;;;;;;;20.70;59.40;;;;;;5020000;28;1315;-68
2021/09/23 11:04:23;;;;;;;;;;;20.70;59.50;;;;;;5016173;28;1358;-67
2021/09/23 11:06:49;;;;;;;;;;;20.70;59.50;;;;;;5015960;28;1349;-67
2021/09/23 11:09:24;;;;;;;;;;;20.70;59.80;;;;;;5015882;28;1279;-67
2021/09/23 11:11:51;;;;;;;;;;;20.70;59.80;;;;;;5012578;28;2053;-67
2021/09/23 11:14:16;;;;;;;;;;;20.70;59.40;;;;;;5012726;28;1079;-67
2021/09/23 11:16:48;;;;;;;;;;;20.70;59.40;;;;;;5010232;28;1731;-67
2021/09/23 11:19:17;;;;;;;;;;;20.70;59.20;;;;;;5035595;28;1341;-67
2021/09/23 11:21:43;;;;;;;;;;;20.70;59.20;;;;;;5033972;28;1326;-67
2021/09/23 11:24:09;;;;;;;;;;;20.70;59.10;;;;;;5035571;28;1248;-67
2021/09/23 11:26:35;;;;;;;;;;;20.70;59.10;;;;;;5017463;28;1457;-66
2021/09/23 11:29:00;;;;;;;;;;;20.70;59.10;;;;;;5022811;28;1301;-67
2021/09/23 11:31:25;;;;;;;;;;;20.70;59.20;;;;;;5002457;28;1977;-67
2021/09/23 11:33:51;;;;;;;;;;;20.70;58.60;;;;;;5035384;28;1157;-67
2021/09/23 11:36:18;;;;;;;;;;;20.70;59.00;;;;;;5034909;28;1369;-67
2021/09/23 11:38:44;;;;;;;;;;;20.70;59.10;;;;;;5017880;28;1397;-67
2021/09/23 11:41:09;;;;;;;;;;;20.70;59.10;;;;;;5034896;28;1119;-67
2021/09/23 11:43:38;;;;;;;;;;;20.70;59.30;;;;;;5017360;28;1341;-67
2021/09/23 11:46:03;;;;;;;;;;;20.70;59.20;;;;;;5035350;28;1333;-67
2021/09/23 11:48:34;;;;;;;;;;;20.70;59.40;;;;;;5035320;28;1250;-67
2021/09/23 11:51:14;;;;;;;;;;;20.70;59.60;;;;;;5021630;28;1906;-67
2021/09/23 11:53:39;;;;;;;;;;;20.70;59.70;;;;;;5017746;28;1135;-67
2021/09/23 11:56:06;;;;;;;;;;;20.70;59.90;;;;;;5014976;28;1275;-67
2021/09/23 11:58:38;;;;;;;;;;;20.70;60.00;;;;;;4997523;28;1344;-67
2021/09/23 12:01:04;;;;;;;;;;;20.70;60.20;;;;;;4997542;28;1310;-67
2021/09/23 12:03:34;;;;;;;;;;;20.70;60.30;;;;;;5014716;28;1279;-67
2021/09/23 12:06:00;;;;;;;;;;;20.70;60.20;;;;;;5006120;28;1401;-67
2021/09/23 12:08:26;;;;;;;;;;;20.70;60.30;;;;;;5032907;28;1311;-67
2021/09/23 12:10:51;;;;;;;;;;;20.70;60.50;;;;;;5005362;28;1898;-67
2021/09/23 12:13:27;;;;;;;;;;;20.70;60.40;;;;;;5034577;28;1361;-67
2021/09/23 12:15:53;;;;;;;;;;;20.70;60.60;;;;;;5017885;28;1367;-67
2021/09/23 12:18:18;;;;;;;;;;;20.70;60.50;;;;;;5034479;28;1342;-67
2021/09/23 12:20:45;;;;;;;;;;;20.70;60.70;;;;;;5034216;28;1224;-67
2021/09/23 12:23:20;;;;;;;;;;;20.70;60.50;;;;;;5016849;28;1542;-67
2021/09/23 12:26:05;;;;;;;;;;;20.70;60.70;;;;;;5034340;28;1716;-67
2021/09/23 12:28:30;;;;;;;;;;;20.70;61.00;;;;;;5016824;28;1328;-67
2021/09/23 12:31:02;;;;;;;;;;;20.70;61.10;;;;;;5033799;28;1977;-67
2021/09/23 12:33:27;;;;;;;;;;;20.70;61.10;;;;;;5034129;28;1076;-67
2021/09/23 12:36:05;;;;;;;;;;;20.70;60.60;;;;;;5033275;28;1378;-69
2021/09/23 12:38:31;;;;;;;;;;;20.70;60.80;;;;;;5023540;28;1350;-67
2021/09/23 12:40:56;;;;;;;;;;;20.70;60.50;;;;;;5033206;28;1293;-67
2021/09/23 12:43:22;;;;;;;;;;;20.70;60.60;;;;;;5033958;28;1084;-67
2021/09/23 12:46:05;;;;;;;;;;;20.70;60.30;;;;;;5020511;28;2077;-66
2021/09/23 12:48:31;;;;;;;;;;;20.70;60.40;;;;;;5008654;28;1856;-68
2021/09/23 12:50:56;;;;;;;;;;;20.70;60.70;;;;;;5030833;28;1969;-67
2021/09/23 12:53:22;;;;;;;;;;;20.70;60.80;;;;;;5022721;28;1119;-67
2021/09/23 12:55:47;;;;;;;;;;;20.70;60.60;;;;;;5013700;28;1350;-67
2021/09/23 12:58:18;;;;;;;;;;;20.70;60.50;;;;;;5014116;28;1344;-68
2021/09/23 13:00:44;;;;;;;;;;;20.70;60.00;;;;;;5012117;28;1519;-66
2021/09/23 13:03:10;;;;;;;;;;;20.60;59.90;;;;;;5027658;28;1110;-68
2021/09/23 13:05:36;;;;;;;;;;;20.70;60.20;;;;;;5033458;28;1325;-69
2021/09/23 13:08:17;;;;;;;;;;;20.60;59.70;;;;;;5015389;28;1364;-68
2021/09/23 13:10:42;;;;;;;;;;;20.70;59.80;;;;;;5016165;28;1898;-69
2021/09/23 13:13:08;;;;;;;;;;;20.60;59.80;;;;;;5033320;28;1294;-68
2021/09/23 13:15:40;;;;;;;;;;;20.70;59.50;;;;;;5033073;28;1692;-68
2021/09/23 13:18:05;;;;;;;;;;;20.60;59.80;;;;;;5033288;28;1333;-69
2021/09/23 13:20:32;;;;;;;;;;;20.70;59.80;;;;;;5032686;28;1204;-67
2021/09/23 13:22:57;;;;;;;;;;;20.60;59.80;;;;;;5033277;28;1264;-68
2021/09/23 13:25:23;;;;;;;;;;;20.70;59.90;;;;;;5015591;28;1346;-68
2021/09/23 13:27:49;;;;;;;;;;;20.60;59.80;;;;;;5015027;28;1310;-69
2021/09/23 13:30:15;;;;;;;;;;;20.70;60.00;;;;;;5032788;28;1905;-69
2021/09/23 13:32:44;;;;;;;;;;;20.70;60.00;;;;;;5033096;28;1244;-68
2021/09/23 13:35:11;;;;;;;;;;;20.70;59.90;;;;;;5015350;28;1288;-68
2021/09/23 13:37:37;;;;;;;;;;;20.70;59.90;;;;;;5015670;28;1365;-68
2021/09/23 13:40:03;;;;;;;;;;;20.70;59.90;;;;;;5032561;28;1337;-68
2021/09/23 13:42:28;;;;;;;;;;;20.70;60.00;;;;;;5015375;28;1299;-68
2021/09/23 13:44:54;;;;;;;;;;;20.70;60.00;;;;;;5032929;28;1297;-67
2021/09/23 13:47:19;;;;;;;;;;;20.60;59.70;;;;;;5032596;28;1287;-68
2021/09/23 13:49:45;;;;;;;;;;;20.70;59.90;;;;;;5032863;28;1279;-67
2021/09/23 13:52:10;;;;;;;;;;;20.60;59.90;;;;;;5031846;28;1898;-67
2021/09/23 13:54:36;;;;;;;;;;;20.60;59.70;;;;;;5032974;28;1271;-68
2021/09/23 13:57:01;;;;;;;;;;;20.70;59.90;;;;;;5032636;28;1291;-68
2021/09/23 13:59:27;;;;;;;;;;;20.70;59.90;;;;;;5025384;28;1323;-68
2021/09/23 14:01:52;;;;;;;;;;;20.70;60.00;;;;;;5012555;28;1283;-68
2021/09/23 14:04:18;;;;;;;;;;;20.60;60.00;;;;;;5012851;28;1344;-67
2021/09/23 14:06:43;;;;;;;;;;;20.70;60.00;;;;;;5013024;28;1272;-68
2021/09/23 14:09:08;;;;;;;;;;;20.70;60.20;;;;;;5012930;28;1275;-68
2021/09/23 14:11:34;;;;;;;;;;;20.60;60.20;;;;;;5012528;28;1902;-67
2021/09/23 14:13:59;;;;;;;;;;;20.70;59.90;;;;;;5021047;28;1213;-68
2021/09/23 14:16:25;;;;;;;;;;;20.60;59.80;;;;;;5032484;28;1352;-68
2021/09/23 14:18:50;;;;;;;;;;;20.60;60.00;;;;;;5032370;28;1324;-67
2021/09/23 14:21:16;;;;;;;;;;;20.60;59.90;;;;;;5032455;28;1188;-68
2021/09/23 14:23:42;;;;;;;;;;;20.60;60.00;;;;;;5032612;28;1248;-68
2021/09/23 14:26:07;;;;;;;;;;;20.60;60.00;;;;;;5032505;28;1339;-68
2021/09/23 14:28:32;;;;;;;;;;;20.60;59.80;;;;;;5032575;28;1276;-68